createdAt,value
2023-01-21T00:02:08.486Z,0.82
2023-01-21T00:04:38.288Z,0.76
2023-01-21T00:07:08.356Z,0.80
2023-01-21T00:09:37.779Z,0.71
2023-01-21T00:12:06.638Z,0.57
2023-01-21T00:14:35.049Z,0.74
2023-01-21T00:17:03.229Z,0.57
2023-01-21T00:19:31.752Z,0.72
2023-01-21T00:22:02.347Z,0.75
2023-01-21T00:24:30.683Z,0.80
2023-01-21T00:26:58.697Z,0.63
2023-01-21T00:29:27.056Z,0.76
2023-01-21T00:31:55.389Z,0.75
2023-01-21T00:34:23.688Z,0.74
2023-01-21T00:36:52.084Z,0.52
2023-01-21T00:39:20.689Z,0.68
2023-01-21T00:41:48.747Z,0.54
2023-01-21T00:44:18.430Z,0.76
2023-01-21T00:46:46.993Z,0.79
2023-01-21T00:49:15.022Z,0.72
2023-01-21T00:51:43.542Z,0.91
2023-01-21T00:54:13.620Z,0.78
2023-01-21T00:56:41.982Z,0.70
2023-01-21T00:59:10.596Z,0.41
2023-01-21T01:01:40.450Z,0.72
2023-01-21T01:04:11.306Z,0.52
2023-01-21T01:06:39.931Z,0.64
2023-01-21T01:09:08.521Z,0.61
2023-01-21T01:11:36.597Z,0.56
2023-01-21T01:14:05.200Z,0.74
2023-01-21T01:16:33.367Z,0.79
2023-01-21T01:19:01.664Z,0.82
2023-01-21T01:21:29.941Z,0.75
2023-01-21T01:24:01.964Z,0.64
2023-01-21T01:26:30.552Z,0.75
2023-01-21T01:28:58.862Z,0.74
2023-01-21T01:31:27.294Z,0.78
2023-01-21T01:33:57.449Z,0.73
2023-01-21T01:36:25.961Z,0.78
2023-01-21T01:38:54.645Z,0.82
2023-01-21T01:41:29.803Z,0.76
2023-01-21T01:44:26.688Z,0.81
2023-01-21T01:46:58.790Z,0.64
2023-01-21T01:49:26.874Z,0.77
2023-01-21T01:52:01.746Z,0.82
2023-01-21T01:54:38.413Z,0.82
2023-01-21T01:57:10.835Z,0.78
2023-01-21T01:59:40.401Z,0.82
2023-01-21T02:02:12.835Z,0.81
2023-01-21T02:04:48.121Z,0.75
2023-01-21T02:07:19.371Z,0.54
2023-01-21T02:09:47.592Z,0.79
2023-01-21T02:12:18.177Z,0.82
2023-01-21T02:14:47.564Z,0.67
2023-01-21T02:18:02.063Z,0.85
2023-01-21T02:21:09.806Z,0.66
2023-01-21T02:23:43.465Z,0.94
2023-01-21T02:26:39.937Z,0.67
2023-01-21T02:29:23.267Z,0.82
2023-01-21T02:32:15.804Z,0.70
2023-01-21T02:35:07.834Z,0.88
2023-01-21T02:37:58.308Z,0.75
2023-01-21T02:40:37.624Z,0.75
2023-01-21T02:43:21.588Z,0.86
2023-01-21T02:46:01.898Z,0.89
2023-01-21T02:48:39.525Z,0.94
2023-01-21T02:51:07.597Z,0.92
2023-01-21T02:53:36.831Z,0.97
2023-01-21T02:56:18.595Z,0.78
2023-01-21T02:59:05.652Z,0.98
2023-01-21T03:01:48.182Z,0.82
2023-01-21T03:04:26.548Z,0.97
2023-01-21T03:07:07.754Z,0.88
2023-01-21T03:09:36.406Z,0.97
2023-01-21T03:12:33.928Z,1.00
2023-01-21T03:15:30.422Z,1.01
2023-01-21T03:18:10.082Z,1.01
2023-01-21T03:20:51.869Z,0.67
2023-01-21T03:23:39.336Z,0.66
2023-01-21T03:26:10.346Z,0.94
2023-01-21T03:28:50.527Z,0.91
2023-01-21T03:31:29.053Z,0.89
2023-01-21T03:34:02.557Z,0.98
2023-01-21T03:36:54.777Z,0.97
2023-01-21T03:40:09.040Z,0.87
2023-01-21T03:42:37.515Z,0.78
2023-01-21T03:45:06.832Z,0.80
2023-01-21T03:47:38.192Z,0.39
2023-01-21T03:50:16.433Z,0.60
2023-01-21T03:52:46.161Z,0.79
2023-01-21T03:55:16.666Z,0.81
2023-01-21T03:57:44.948Z,0.67
2023-01-21T04:00:18.420Z,0.86
2023-01-21T04:02:46.732Z,0.73
2023-01-21T04:05:14.799Z,0.83
2023-01-21T04:07:43.203Z,0.96
2023-01-21T04:10:11.729Z,0.91
2023-01-21T04:12:40.708Z,0.84
2023-01-21T04:15:10.001Z,0.87
2023-01-21T04:17:38.428Z,0.94
2023-01-21T04:20:08.094Z,0.75
2023-01-21T04:22:36.538Z,0.70
2023-01-21T04:25:05.307Z,0.97
2023-01-21T04:27:34.037Z,1.02
2023-01-21T04:30:03.870Z,0.95
2023-01-21T04:32:33.667Z,0.94
2023-01-21T04:35:02.880Z,0.93
2023-01-21T04:37:31.270Z,0.74
2023-01-21T04:39:59.108Z,0.90
2023-01-21T04:42:27.261Z,0.76
2023-01-21T04:44:58.528Z,0.90
2023-01-21T04:47:26.912Z,0.65
2023-01-21T04:49:55.243Z,0.85
2023-01-21T04:52:23.553Z,1.12
2023-01-21T04:54:51.950Z,0.80
2023-01-21T04:57:20.527Z,0.99
2023-01-21T04:59:48.892Z,0.90
2023-01-21T05:02:16.712Z,1.01
2023-01-21T05:04:44.980Z,1.11
2023-01-21T05:07:14.980Z,1.09
2023-01-21T05:09:43.776Z,1.10
2023-01-21T05:12:11.693Z,1.09
2023-01-21T05:14:40.003Z,0.86
2023-01-21T05:17:08.861Z,1.10
2023-01-21T05:19:37.413Z,0.84
2023-01-21T05:22:05.691Z,0.87
2023-01-21T05:24:33.758Z,0.78
2023-01-21T05:27:01.957Z,1.08
2023-01-21T05:29:30.164Z,0.95
2023-01-21T05:31:58.124Z,1.01
2023-01-21T05:34:26.163Z,1.11
2023-01-21T05:36:55.247Z,1.09
2023-01-21T05:39:23.345Z,0.86
2023-01-21T05:41:51.389Z,1.06
2023-01-21T05:44:19.606Z,1.09
2023-01-21T05:46:47.850Z,1.11
2023-01-21T05:49:16.428Z,1.10
2023-01-21T05:51:44.901Z,1.02
2023-01-21T05:54:15.304Z,0.88
2023-01-21T05:56:43.342Z,0.82
2023-01-21T05:59:11.407Z,1.01
2023-01-21T06:01:39.292Z,1.27
2023-01-21T06:04:07.436Z,1.22
2023-01-21T06:06:35.752Z,1.01
2023-01-21T06:09:04.085Z,0.88
2023-01-21T06:11:32.150Z,1.09
2023-01-21T06:14:00.236Z,0.97
2023-01-21T06:16:28.243Z,1.06
2023-01-21T06:18:57.194Z,1.00
2023-01-21T06:21:26.053Z,1.11
2023-01-21T06:23:55.682Z,1.24
2023-01-21T06:26:25.547Z,1.05
2023-01-21T06:28:58.489Z,1.20
2023-01-21T06:31:26.867Z,1.13
2023-01-21T06:33:55.471Z,1.23
2023-01-21T06:36:24.138Z,1.38
2023-01-21T06:38:53.206Z,1.32
2023-01-21T06:41:21.952Z,1.29
2023-01-21T06:43:50.324Z,1.32
2023-01-21T06:46:18.885Z,1.32
2023-01-21T06:48:47.101Z,1.33
2023-01-21T06:51:15.587Z,1.22
2023-01-21T06:53:54.892Z,1.38
2023-01-21T06:56:40.306Z,1.39
2023-01-21T06:59:09.097Z,1.18
2023-01-21T07:01:42.940Z,1.40
2023-01-21T07:04:11.032Z,1.38
2023-01-21T07:06:39.632Z,1.40
2023-01-21T07:09:08.733Z,1.40
2023-01-21T07:11:36.937Z,1.40
2023-01-21T07:14:04.918Z,1.39
2023-01-21T07:16:33.273Z,1.26
2023-01-21T07:19:01.965Z,1.50
2023-01-21T07:21:30.003Z,1.27
2023-01-21T07:23:58.070Z,1.53
2023-01-21T07:26:26.605Z,1.56
2023-01-21T07:28:55.092Z,1.43
2023-01-21T07:31:23.401Z,1.30
2023-01-21T07:33:52.063Z,1.51
2023-01-21T07:36:20.237Z,1.39
2023-01-21T07:38:48.679Z,1.34
2023-01-21T07:41:17.094Z,1.37
2023-01-21T07:43:49.177Z,1.35
2023-01-21T07:46:22.233Z,1.59
2023-01-21T07:48:51.975Z,1.30
2023-01-21T07:51:20.692Z,1.52
2023-01-21T07:53:49.095Z,1.65
2023-01-21T07:56:18.640Z,1.67
2023-01-21T07:58:47.867Z,1.54
2023-01-21T08:01:16.288Z,1.67
2023-01-21T08:03:44.521Z,1.73
2023-01-21T08:06:13.417Z,1.46
2023-01-21T08:08:42.100Z,1.60
2023-01-21T08:11:10.547Z,1.55
2023-01-21T08:13:38.930Z,1.61
2023-01-21T08:16:07.981Z,1.67
2023-01-21T08:18:36.515Z,1.45
2023-01-21T08:21:05.052Z,1.48
2023-01-21T08:23:33.074Z,1.54
2023-01-21T08:26:06.031Z,1.35
2023-01-21T08:28:34.613Z,1.18
2023-01-21T08:31:10.157Z,1.50
2023-01-21T08:33:39.412Z,1.55
2023-01-21T08:36:09.571Z,1.56
2023-01-21T08:38:38.011Z,1.56
2023-01-21T08:41:06.807Z,1.65
2023-01-21T08:43:37.093Z,1.41
2023-01-21T08:46:06.808Z,1.61
2023-01-21T08:48:35.657Z,1.66
2023-01-21T08:51:05.017Z,1.67
2023-01-21T08:53:33.629Z,1.66
2023-01-21T08:56:04.204Z,1.71
2023-01-21T08:58:34.394Z,1.82
2023-01-21T09:01:13.914Z,1.79
2023-01-21T09:03:42.706Z,1.61
2023-01-21T09:06:12.241Z,1.82
2023-01-21T09:08:42.443Z,1.86
2023-01-21T09:11:11.446Z,1.77
2023-01-21T09:13:40.932Z,1.71
2023-01-21T09:16:22.934Z,1.63
2023-01-21T09:18:51.652Z,1.77
2023-01-21T09:21:20.830Z,1.81
2023-01-21T09:23:49.456Z,1.79
2023-01-21T09:26:23.725Z,1.87
2023-01-21T09:29:00.883Z,1.94
2023-01-21T09:31:31.315Z,1.99
2023-01-21T09:34:05.434Z,2.11
2023-01-21T09:36:35.909Z,2.03
2023-01-21T09:39:05.467Z,1.92
2023-01-21T09:41:57.574Z,2.10
2023-01-21T09:44:45.062Z,2.22
2023-01-21T09:47:29.583Z,2.37
2023-01-21T09:50:23.298Z,2.14
2023-01-21T09:53:14.244Z,2.16
2023-01-21T09:55:48.808Z,2.53
2023-01-21T09:59:02.353Z,2.47
2023-01-21T10:01:38.147Z,2.66
2023-01-21T10:04:41.175Z,2.79
2023-01-21T10:07:25.334Z,2.63
2023-01-21T10:10:21.326Z,2.41
2023-01-21T10:13:27.155Z,2.63
2023-01-21T10:16:08.343Z,2.57
2023-01-21T10:18:38.966Z,2.55
2023-01-21T10:21:24.880Z,2.75
2023-01-21T10:24:01.128Z,2.65
2023-01-21T10:26:31.814Z,2.73
2023-01-21T10:29:00.717Z,2.82
2023-01-21T10:31:40.827Z,2.80
2023-01-21T10:34:15.142Z,2.58
2023-01-21T10:36:55.387Z,2.91
2023-01-21T10:39:49.248Z,2.94
2023-01-21T10:42:39.287Z,2.99
2023-01-21T10:45:31.842Z,3.08
2023-01-21T10:48:24.478Z,3.17
2023-01-21T10:51:11.432Z,2.72
2023-01-21T10:54:26.788Z,2.41
2023-01-21T10:57:27.479Z,2.98
2023-01-21T11:00:01.361Z,2.49
2023-01-21T11:02:34.854Z,2.56
2023-01-21T11:05:05.649Z,2.95
2023-01-21T11:07:42.608Z,2.62
2023-01-21T11:10:22.814Z,2.79
2023-01-21T11:12:51.399Z,2.88
2023-01-21T11:15:21.781Z,3.01
2023-01-21T11:17:56.721Z,2.85
2023-01-21T11:20:42.776Z,2.72
2023-01-21T11:23:35.045Z,2.92
2023-01-21T11:26:18.391Z,2.95
2023-01-21T11:28:46.610Z,3.25
2023-01-21T11:31:23.427Z,3.25
2023-01-21T11:33:53.061Z,3.29
2023-01-21T11:36:22.286Z,2.90
2023-01-21T11:39:04.362Z,2.98
2023-01-21T11:41:33.436Z,2.87
2023-01-21T11:44:18.822Z,2.90
2023-01-21T11:46:46.936Z,2.92
2023-01-21T11:49:26.499Z,2.86
2023-01-21T11:52:19.459Z,3.04
2023-01-21T11:54:49.133Z,3.11
2023-01-21T11:57:33.968Z,2.78
2023-01-21T12:00:19.367Z,2.95
2023-01-21T12:03:02.468Z,3.03
2023-01-21T12:05:41.236Z,3.18
2023-01-21T12:08:31.719Z,3.00
2023-01-21T12:11:03.448Z,2.70
2023-01-21T12:13:48.437Z,2.91
2023-01-21T12:16:38.009Z,2.98
2023-01-21T12:19:31.493Z,3.07
2023-01-21T12:22:39.912Z,3.16
2023-01-21T12:25:22.096Z,3.21
2023-01-21T12:28:15.223Z,3.33
2023-01-21T12:31:01.936Z,3.14
2023-01-21T12:33:33.376Z,3.52
2023-01-21T12:36:23.252Z,3.02
2023-01-21T12:39:29.422Z,3.61
2023-01-21T12:42:23.272Z,3.25
2023-01-21T12:45:01.049Z,3.27
2023-01-21T12:47:32.847Z,3.59
2023-01-21T12:50:26.906Z,3.67
2023-01-21T12:53:42.813Z,3.75
2023-01-21T12:56:33.004Z,4.11
2023-01-21T12:59:21.468Z,3.63
2023-01-21T13:02:06.087Z,3.62
2023-01-21T13:04:46.586Z,3.63
2023-01-21T13:07:46.680Z,3.66
2023-01-21T13:10:44.067Z,3.21
2023-01-21T13:13:23.767Z,3.58
2023-01-21T13:15:59.193Z,3.39
2023-01-21T13:18:35.531Z,3.28
2023-01-21T13:21:28.213Z,3.25
2023-01-21T13:24:07.809Z,3.13
2023-01-21T13:27:10.024Z,3.04
2023-01-21T13:30:17.771Z,2.61
2023-01-21T13:33:16.563Z,2.81
2023-01-21T13:36:11.227Z,2.87
2023-01-21T13:39:05.500Z,2.88
2023-01-21T13:42:18.279Z,2.75
2023-01-21T13:45:13.488Z,2.88
2023-01-21T13:48:14.938Z,2.80
2023-01-21T13:51:13.484Z,2.54
2023-01-21T13:54:34.755Z,2.48
2023-01-21T13:57:36.204Z,2.49
2023-01-21T14:00:18.676Z,2.54
2023-01-21T14:03:22.120Z,2.44
2023-01-21T14:06:06.832Z,2.14
2023-01-21T14:09:04.874Z,2.26
2023-01-21T14:11:44.159Z,2.31
2023-01-21T14:14:46.650Z,1.87
2023-01-21T14:18:07.752Z,2.19
2023-01-21T14:20:54.914Z,2.22
2023-01-21T14:23:44.076Z,2.10
2023-01-21T14:26:34.359Z,1.57
2023-01-21T14:29:12.704Z,1.79
2023-01-21T14:31:47.747Z,1.07
2023-01-21T14:34:29.870Z,1.51
2023-01-21T14:37:18.551Z,1.54
2023-01-21T14:40:30.590Z,1.90
2023-01-21T14:43:00.891Z,1.53
2023-01-21T14:45:50.358Z,1.84
2023-01-21T14:48:40.457Z,1.30
2023-01-21T14:51:08.920Z,1.87
2023-01-21T14:53:47.739Z,1.79
2023-01-21T14:56:20.317Z,1.46
2023-01-21T14:58:58.824Z,1.79
2023-01-21T15:01:41.291Z,1.89
2023-01-21T15:04:25.987Z,1.48
2023-01-21T15:07:02.723Z,1.81
2023-01-21T15:09:35.496Z,1.86
2023-01-21T15:12:08.927Z,1.84
2023-01-21T15:14:41.700Z,1.58
2023-01-21T15:17:56.582Z,1.84
2023-01-21T15:20:52.622Z,1.58
2023-01-21T15:23:30.307Z,1.92
2023-01-21T15:26:14.589Z,1.67
2023-01-21T15:28:56.135Z,1.88
2023-01-21T15:31:24.797Z,1.63
2023-01-21T15:34:02.973Z,1.96
2023-01-21T15:36:44.609Z,1.93
2023-01-21T15:39:25.835Z,1.96
2023-01-21T15:42:14.729Z,1.93
2023-01-21T15:45:28.472Z,1.96
2023-01-21T15:48:14.958Z,1.90
2023-01-21T15:51:04.871Z,1.83
2023-01-21T15:53:53.982Z,1.90
2023-01-21T15:56:50.886Z,1.86
2023-01-21T15:59:30.965Z,1.88
2023-01-21T16:02:40.297Z,1.78
2023-01-21T16:05:24.106Z,1.83
2023-01-21T16:08:23.481Z,1.75
2023-01-21T16:11:28.183Z,1.86
2023-01-21T16:14:38.860Z,1.92
2023-01-21T16:17:25.211Z,1.63
2023-01-21T16:19:57.374Z,1.54
2023-01-21T16:22:31.126Z,1.73
2023-01-21T16:25:09.679Z,1.83
2023-01-21T16:27:38.876Z,1.83
2023-01-21T16:30:14.441Z,1.84
2023-01-21T16:32:42.994Z,1.87
2023-01-21T16:35:11.312Z,1.62
2023-01-21T16:37:43.632Z,1.54
2023-01-21T16:40:24.064Z,1.87
2023-01-21T16:43:27.089Z,1.79
2023-01-21T16:46:03.664Z,1.66
2023-01-21T16:48:34.732Z,1.57
2023-01-21T16:51:03.925Z,1.56
2023-01-21T16:53:32.761Z,1.58
2023-01-21T16:56:01.577Z,1.73
2023-01-21T16:58:34.598Z,1.67
2023-01-21T17:01:11.439Z,1.56
2023-01-21T17:03:40.291Z,1.48
2023-01-21T17:06:19.708Z,1.46
2023-01-21T17:08:56.549Z,1.18
2023-01-21T17:11:25.095Z,1.27
2023-01-21T17:13:56.022Z,1.41
2023-01-21T17:16:33.047Z,1.24
2023-01-21T17:19:09.668Z,1.52
2023-01-21T17:21:50.566Z,1.54
2023-01-21T17:24:44.247Z,1.63
2023-01-21T17:27:20.710Z,1.45
2023-01-21T17:29:49.402Z,1.27
2023-01-21T17:32:32.744Z,1.60
2023-01-21T17:35:14.246Z,1.35
2023-01-21T17:37:44.288Z,1.63
2023-01-21T17:40:40.645Z,1.23
2023-01-21T17:43:26.512Z,1.48
2023-01-21T17:45:57.501Z,1.51
2023-01-21T17:48:35.565Z,1.17
2023-01-21T17:51:27.775Z,1.19
2023-01-21T17:54:06.495Z,1.47
2023-01-21T17:56:41.117Z,1.55
2023-01-21T17:59:35.271Z,1.55
2023-01-21T18:02:18.892Z,1.47
2023-01-21T18:04:47.522Z,1.58
2023-01-21T18:07:22.000Z,1.55
2023-01-21T18:09:53.234Z,1.44
2023-01-21T18:12:22.635Z,1.41
2023-01-21T18:14:51.349Z,1.28
2023-01-21T18:17:24.249Z,1.07
2023-01-21T18:19:52.933Z,1.32
2023-01-21T18:22:29.793Z,1.38
2023-01-21T18:25:00.879Z,1.18
2023-01-21T18:27:29.735Z,1.26
2023-01-21T18:30:00.659Z,1.15
2023-01-21T18:32:29.129Z,1.24
2023-01-21T18:34:58.327Z,1.29
2023-01-21T18:37:27.233Z,1.21
2023-01-21T18:39:58.798Z,1.05
2023-01-21T18:42:27.438Z,1.10
2023-01-21T18:44:56.442Z,1.47
2023-01-21T18:47:24.860Z,1.53
2023-01-21T18:49:53.746Z,1.56
2023-01-21T18:52:22.731Z,1.20
2023-01-21T18:54:51.863Z,1.55
2023-01-21T18:57:23.289Z,1.19
2023-01-21T18:59:51.970Z,1.56
2023-01-21T19:02:21.996Z,1.57
2023-01-21T19:04:51.073Z,1.26
2023-01-21T19:07:23.757Z,1.54
2023-01-21T19:09:52.642Z,1.56
2023-01-21T19:12:23.535Z,1.55
2023-01-21T19:14:52.479Z,1.52
2023-01-21T19:17:29.167Z,1.47
2023-01-21T19:19:58.406Z,1.48
2023-01-21T19:22:26.904Z,1.28
2023-01-21T19:24:56.645Z,1.28
2023-01-21T19:27:32.517Z,1.33
2023-01-21T19:30:01.804Z,0.89
2023-01-21T19:32:30.627Z,1.28
2023-01-21T19:34:59.331Z,1.20
2023-01-21T19:37:28.205Z,1.33
2023-01-21T19:39:57.399Z,1.30
2023-01-21T19:42:26.494Z,1.27
2023-01-21T19:44:55.598Z,1.26
2023-01-21T19:47:30.237Z,1.39
2023-01-21T19:49:59.371Z,1.38
2023-01-21T19:52:28.533Z,1.08
2023-01-21T19:54:56.803Z,1.32
2023-01-21T19:57:25.645Z,1.13
2023-01-21T19:59:54.870Z,1.44
2023-01-21T20:02:23.826Z,1.41
2023-01-21T20:04:53.106Z,1.15
2023-01-21T20:07:23.242Z,1.10
2023-01-21T20:09:52.087Z,1.12
2023-01-21T20:12:20.930Z,1.46
2023-01-21T20:14:49.770Z,1.40
2023-01-21T20:17:19.239Z,1.31
2023-01-21T20:19:48.003Z,1.49
2023-01-21T20:22:17.672Z,1.46
2023-01-21T20:24:46.577Z,1.47
2023-01-21T20:27:15.970Z,1.31
2023-01-21T20:29:55.635Z,1.47
2023-01-21T20:32:31.510Z,1.19
2023-01-21T20:35:00.495Z,0.93
2023-01-21T20:37:29.012Z,1.33
2023-01-21T20:39:57.763Z,1.16
2023-01-21T20:42:27.371Z,1.44
2023-01-21T20:44:56.449Z,1.41
2023-01-21T20:47:37.812Z,1.25
2023-01-21T20:50:22.296Z,1.18
2023-01-21T20:52:52.594Z,1.45
2023-01-21T20:55:24.458Z,1.42
2023-01-21T20:57:52.771Z,1.12
2023-01-21T21:00:27.289Z,1.38
2023-01-21T21:02:56.047Z,1.52
2023-01-21T21:05:27.570Z,1.56
2023-01-21T21:07:56.860Z,1.46
2023-01-21T21:10:29.743Z,1.52
2023-01-21T21:13:01.812Z,1.43
2023-01-21T21:15:33.629Z,1.22
2023-01-21T21:18:05.365Z,1.46
2023-01-21T21:20:39.646Z,1.29
2023-01-21T21:23:12.396Z,1.43
2023-01-21T21:25:44.662Z,1.34
2023-01-21T21:28:18.647Z,1.51
2023-01-21T21:30:47.189Z,1.30
2023-01-21T21:33:22.646Z,1.45
2023-01-21T21:35:51.595Z,1.56
2023-01-21T21:38:26.903Z,1.50
2023-01-21T21:40:57.895Z,1.19
2023-01-21T21:43:32.966Z,1.33
2023-01-21T21:46:27.417Z,1.37
2023-01-21T21:48:57.576Z,1.26
2023-01-21T21:51:26.291Z,1.52
2023-01-21T21:53:58.217Z,1.53
2023-01-21T21:56:27.435Z,1.30
2023-01-21T21:58:56.526Z,1.54
2023-01-21T22:01:30.481Z,1.53
2023-01-21T22:04:00.320Z,1.50
2023-01-21T22:06:30.221Z,1.51
2023-01-21T22:08:59.136Z,1.49
2023-01-21T22:11:29.205Z,1.38
2023-01-21T22:13:58.139Z,1.49
2023-01-21T22:16:29.302Z,1.45
2023-01-21T22:18:59.124Z,1.50
2023-01-21T22:21:34.064Z,1.35
2023-01-21T22:24:05.800Z,1.57
2023-01-21T22:26:36.187Z,1.45
2023-01-21T22:29:06.051Z,1.34
2023-01-21T22:31:35.993Z,1.56
2023-01-21T22:34:04.485Z,1.56
2023-01-21T22:36:33.270Z,1.54
2023-01-21T22:39:02.403Z,1.57
2023-01-21T22:41:31.253Z,1.51
2023-01-21T22:43:59.541Z,1.55
2023-01-21T22:46:33.923Z,1.52
2023-01-21T22:49:02.087Z,1.33
2023-01-21T22:51:30.589Z,1.45
2023-01-21T22:54:01.822Z,1.51
2023-01-21T22:56:50.445Z,1.56
2023-01-21T22:59:19.515Z,1.55
2023-01-21T23:01:48.984Z,1.23
2023-01-21T23:04:18.027Z,1.54
2023-01-21T23:06:49.139Z,1.52
2023-01-21T23:09:17.815Z,1.28
2023-01-21T23:11:45.725Z,1.54
2023-01-21T23:14:14.035Z,1.54
2023-01-21T23:16:42.430Z,1.39
2023-01-21T23:19:10.672Z,1.49
2023-01-21T23:21:40.290Z,1.54
2023-01-21T23:24:09.164Z,1.27
2023-01-21T23:26:38.131Z,1.33
2023-01-21T23:29:06.339Z,1.53
2023-01-21T23:31:35.500Z,1.53
2023-01-21T23:34:03.746Z,1.49
2023-01-21T23:36:32.377Z,1.56
2023-01-21T23:39:00.627Z,1.60
2023-01-21T23:41:29.229Z,1.65
2023-01-21T23:44:04.028Z,1.62
2023-01-21T23:46:32.721Z,1.60
2023-01-21T23:49:01.157Z,1.55
2023-01-21T23:51:29.445Z,1.48
2023-01-21T23:53:57.839Z,1.40
2023-01-21T23:56:26.844Z,1.54
2023-01-21T23:58:57.687Z,1.55
